createdAt,value
2019-04-30T00:01:16.983Z,99.90
2019-04-30T00:04:00.329Z,99.90
2019-04-30T00:06:34.664Z,99.90
2019-04-30T00:09:00.652Z,99.90
2019-04-30T00:11:29.319Z,99.90
2019-04-30T00:13:59.008Z,99.90
2019-04-30T00:16:31.022Z,99.90
2019-04-30T00:19:00.829Z,99.90
2019-04-30T00:21:30.051Z,99.90
2019-04-30T00:24:00.962Z,99.90
2019-04-30T00:26:29.398Z,99.90
2019-04-30T00:28:58.392Z,99.90
2019-04-30T00:31:27.566Z,99.90
2019-04-30T00:33:57.846Z,99.90
2019-04-30T00:36:33.452Z,99.90
2019-04-30T00:38:58.288Z,99.90
2019-04-30T00:41:26.976Z,99.90
2019-04-30T00:43:55.705Z,99.90
2019-04-30T00:46:27.223Z,99.90
2019-04-30T00:48:56.798Z,99.90
2019-04-30T00:51:26.248Z,99.90
2019-04-30T00:53:55.761Z,99.90
2019-04-30T00:56:28.093Z,99.90
2019-04-30T00:58:57.781Z,99.90
2019-04-30T01:02:00.449Z,99.90
2019-04-30T01:04:34.976Z,99.90
2019-04-30T01:07:07.195Z,99.90
2019-04-30T01:09:35.411Z,99.90
2019-04-30T01:12:05.506Z,99.90
2019-04-30T01:14:34.609Z,99.90
2019-04-30T01:17:03.702Z,99.90
2019-04-30T01:19:33.744Z,99.90
2019-04-30T01:22:02.487Z,99.90
2019-04-30T01:24:32.212Z,99.90
2019-04-30T01:27:06.786Z,99.90
2019-04-30T01:29:40.910Z,99.90
2019-04-30T01:32:04.378Z,99.90
2019-04-30T01:34:34.238Z,99.90
2019-04-30T01:37:03.075Z,99.90
2019-04-30T01:39:32.709Z,99.90
2019-04-30T01:42:02.950Z,99.90
2019-04-30T01:44:31.797Z,99.90
2019-04-30T01:47:00.475Z,99.90
2019-04-30T01:49:41.557Z,99.90
2019-04-30T01:52:00.992Z,99.90
2019-04-30T01:54:29.704Z,99.90
2019-04-30T01:57:19.251Z,99.90
2019-04-30T02:00:22.455Z,99.90
2019-04-30T02:02:51.207Z,99.90
2019-04-30T02:05:19.927Z,99.90
2019-04-30T02:07:48.719Z,99.90
2019-04-30T02:10:18.628Z,99.90
2019-04-30T02:12:49.337Z,99.90
2019-04-30T02:15:19.267Z,99.90
2019-04-30T02:17:50.210Z,99.90
2019-04-30T02:20:18.918Z,99.90
2019-04-30T02:22:48.595Z,99.90
2019-04-30T02:25:19.373Z,99.90
2019-04-30T02:27:48.957Z,99.90
2019-04-30T02:30:20.716Z,99.90
2019-04-30T02:32:49.535Z,99.90
2019-04-30T02:35:36.711Z,99.90
2019-04-30T02:38:12.571Z,99.90
2019-04-30T02:40:42.540Z,99.90
2019-04-30T02:43:12.226Z,99.90
2019-04-30T02:45:41.598Z,99.90
2019-04-30T02:48:11.732Z,99.90
2019-04-30T02:50:43.098Z,99.90
2019-04-30T02:53:50.512Z,99.90
2019-04-30T02:56:21.105Z,99.90
2019-04-30T02:58:50.551Z,99.90
2019-04-30T03:01:20.231Z,99.90
2019-04-30T03:03:50.091Z,99.90
2019-04-30T03:06:20.509Z,99.90
2019-04-30T03:08:51.266Z,99.90
2019-04-30T03:11:20.698Z,99.90
2019-04-30T03:13:49.960Z,99.90
2019-04-30T03:16:22.752Z,99.90
2019-04-30T03:19:02.692Z,99.90
2019-04-30T03:22:03.225Z,99.90
2019-04-30T03:24:31.840Z,99.90
2019-04-30T03:27:00.493Z,99.90
2019-04-30T03:29:30.285Z,99.90
2019-04-30T03:32:02.790Z,99.90
2019-04-30T03:34:32.489Z,99.90
2019-04-30T03:37:02.136Z,99.90
2019-04-30T03:39:33.643Z,99.90
2019-04-30T03:42:02.140Z,99.90
2019-04-30T03:44:32.351Z,99.90
2019-04-30T03:47:01.574Z,99.90
2019-04-30T03:49:30.354Z,99.90
2019-04-30T03:51:59.945Z,99.90
2019-04-30T03:54:29.441Z,99.90
2019-04-30T03:57:00.732Z,99.90
2019-04-30T03:59:30.252Z,99.90
2019-04-30T04:02:23.053Z,99.90
2019-04-30T04:05:13.867Z,99.90
2019-04-30T04:07:53.093Z,99.90
2019-04-30T04:10:52.608Z,99.90
2019-04-30T04:13:19.877Z,99.90
2019-04-30T04:15:49.917Z,99.90
2019-04-30T04:18:20.210Z,99.90
2019-04-30T04:20:52.007Z,99.90
2019-04-30T04:23:19.462Z,99.90
2019-04-30T04:25:49.915Z,99.90
2019-04-30T04:28:20.240Z,99.90
2019-04-30T04:30:50.577Z,99.90
2019-04-30T04:33:20.062Z,99.90
2019-04-30T04:35:49.971Z,99.90
2019-04-30T04:38:20.316Z,99.90
2019-04-30T04:40:50.377Z,99.90
2019-04-30T04:43:25.352Z,99.90
2019-04-30T04:45:54.106Z,99.90
2019-04-30T04:48:23.203Z,99.90
2019-04-30T04:50:52.092Z,99.90
2019-04-30T04:53:21.799Z,99.90
2019-04-30T04:55:53.486Z,99.90
2019-04-30T04:58:22.316Z,99.90
2019-04-30T05:00:52.059Z,99.90
2019-04-30T05:03:29.840Z,99.90
2019-04-30T05:06:01.912Z,99.90
2019-04-30T05:08:33.282Z,99.90
2019-04-30T05:11:02.054Z,99.90
2019-04-30T05:13:30.741Z,99.90
2019-04-30T05:15:59.544Z,99.90
2019-04-30T05:18:29.155Z,99.90
2019-04-30T05:20:59.056Z,99.90
2019-04-30T05:23:29.903Z,99.90
2019-04-30T05:26:02.696Z,99.90
2019-04-30T05:28:36.181Z,99.90
2019-04-30T05:31:05.110Z,99.90
2019-04-30T05:33:33.975Z,99.90
2019-04-30T05:36:02.841Z,99.90
2019-04-30T05:38:31.465Z,99.90
2019-04-30T05:41:00.210Z,99.90
2019-04-30T05:43:34.895Z,99.90
2019-04-30T05:46:05.719Z,99.90
2019-04-30T05:48:39.597Z,99.90
2019-04-30T05:51:09.012Z,99.90
2019-04-30T05:53:39.388Z,99.90
2019-04-30T05:56:10.561Z,99.90
2019-04-30T05:58:39.942Z,99.90
2019-04-30T06:01:09.673Z,99.90
2019-04-30T06:03:38.938Z,99.90
2019-04-30T06:06:13.740Z,99.90
2019-04-30T06:08:52.861Z,99.90
2019-04-30T06:11:44.210Z,99.90
2019-04-30T06:14:48.851Z,99.90
2019-04-30T06:17:15.334Z,99.90
2019-04-30T06:19:44.044Z,99.90
2019-04-30T06:22:12.750Z,99.90
2019-04-30T06:24:41.558Z,99.90
2019-04-30T06:27:10.921Z,99.90
2019-04-30T06:29:40.304Z,99.90
2019-04-30T06:32:09.235Z,99.90
2019-04-30T06:34:39.509Z,99.90
2019-04-30T06:37:09.840Z,99.90
2019-04-30T06:39:38.747Z,99.90
2019-04-30T06:42:12.244Z,99.90
2019-04-30T06:44:41.872Z,99.90
2019-04-30T06:47:10.519Z,99.90
2019-04-30T06:49:39.400Z,99.90
2019-04-30T06:52:19.536Z,99.90
2019-04-30T06:54:39.767Z,99.90
2019-04-30T06:57:09.744Z,99.90
2019-04-30T06:59:39.767Z,99.90
2019-04-30T07:02:09.050Z,99.90
2019-04-30T07:04:40.057Z,99.90
2019-04-30T07:07:09.302Z,99.90
2019-04-30T07:10:00.487Z,99.90
2019-04-30T07:13:04.630Z,99.90
2019-04-30T07:15:33.305Z,99.90
2019-04-30T07:18:02.077Z,99.90
2019-04-30T07:20:34.000Z,99.90
2019-04-30T07:23:03.354Z,99.90
2019-04-30T07:25:33.267Z,99.90
2019-04-30T07:28:01.892Z,99.90
2019-04-30T07:30:31.033Z,99.90
2019-04-30T07:33:00.029Z,99.90
2019-04-30T07:35:29.243Z,99.90
2019-04-30T07:38:00.585Z,99.90
2019-04-30T07:40:29.207Z,99.90
2019-04-30T07:42:59.137Z,99.90
2019-04-30T07:45:31.571Z,99.90
2019-04-30T07:47:59.593Z,99.90
2019-04-30T07:50:30.816Z,99.90
2019-04-30T07:53:05.308Z,99.90
2019-04-30T07:55:29.491Z,99.90
2019-04-30T07:57:59.123Z,99.90
2019-04-30T08:00:30.956Z,99.90
2019-04-30T08:03:47.374Z,99.90
2019-04-30T08:07:15.987Z,99.90
2019-04-30T08:09:44.814Z,99.90
2019-04-30T08:12:21.535Z,99.90
2019-04-30T08:14:49.620Z,99.90
2019-04-30T08:17:19.012Z,99.90
2019-04-30T08:19:48.953Z,99.90
2019-04-30T08:22:19.645Z,99.90
2019-04-30T08:24:49.155Z,99.90
2019-04-30T08:27:24.361Z,99.90
2019-04-30T08:29:53.084Z,99.90
2019-04-30T08:32:28.976Z,99.90
2019-04-30T08:35:01.311Z,99.90
2019-04-30T08:37:38.595Z,99.90
2019-04-30T08:40:08.684Z,99.90
2019-04-30T08:42:40.151Z,99.90
2019-04-30T08:45:09.486Z,99.90
2019-04-30T08:47:39.482Z,99.90
2019-04-30T08:50:09.754Z,99.90
2019-04-30T08:52:45.086Z,99.90
2019-04-30T08:55:17.173Z,99.90
2019-04-30T08:57:50.009Z,99.90
2019-04-30T09:00:19.650Z,99.90
2019-04-30T09:02:59.377Z,99.90
2019-04-30T09:05:49.796Z,99.90
2019-04-30T09:08:21.549Z,99.90
2019-04-30T09:10:50.437Z,99.90
2019-04-30T09:13:19.288Z,99.90
2019-04-30T09:15:49.245Z,99.90
2019-04-30T09:18:19.051Z,99.90
2019-04-30T09:20:49.540Z,99.90
2019-04-30T09:23:22.318Z,99.90
2019-04-30T09:25:51.147Z,99.90
2019-04-30T09:28:21.060Z,99.90
2019-04-30T09:30:53.240Z,99.90
2019-04-30T09:33:21.850Z,99.90
2019-04-30T09:35:50.669Z,99.90
2019-04-30T09:38:22.495Z,99.90
2019-04-30T09:40:51.077Z,99.90
2019-04-30T09:43:19.957Z,99.90
2019-04-30T09:45:49.738Z,99.90
2019-04-30T09:48:19.531Z,99.90
2019-04-30T09:50:49.705Z,99.90
2019-04-30T09:53:19.709Z,99.90
2019-04-30T09:55:49.642Z,99.90
2019-04-30T09:58:20.991Z,99.90
2019-04-30T10:00:50.378Z,99.90
2019-04-30T10:03:20.600Z,99.90
2019-04-30T10:05:51.374Z,99.90
2019-04-30T10:08:20.996Z,99.90
2019-04-30T10:11:01.542Z,99.90
2019-04-30T10:13:30.215Z,99.90
2019-04-30T10:16:09.717Z,99.90
2019-04-30T10:18:38.533Z,99.90
2019-04-30T10:21:08.951Z,99.90
2019-04-30T10:23:39.108Z,99.90
2019-04-30T10:26:08.223Z,99.90
2019-04-30T10:28:40.855Z,99.90
2019-04-30T10:31:09.710Z,99.90
2019-04-30T10:33:38.833Z,99.90
2019-04-30T10:36:09.374Z,99.90
2019-04-30T10:38:39.406Z,99.90
2019-04-30T10:41:08.924Z,99.90
2019-04-30T10:43:39.393Z,99.90
2019-04-30T10:46:09.646Z,99.90
2019-04-30T10:48:39.653Z,99.90
2019-04-30T10:51:09.094Z,99.90
2019-04-30T10:53:38.447Z,99.90
2019-04-30T10:56:07.166Z,99.90
2019-04-30T10:58:35.913Z,99.90
2019-04-30T11:01:04.679Z,99.90
2019-04-30T11:03:33.469Z,99.90
2019-04-30T11:06:02.235Z,99.90
2019-04-30T11:08:30.968Z,99.90
2019-04-30T11:11:00.007Z,99.90
2019-04-30T11:13:28.726Z,99.90
2019-04-30T11:16:00.069Z,99.90
2019-04-30T11:18:28.074Z,99.90
2019-04-30T11:20:59.518Z,99.90
2019-04-30T11:23:29.634Z,99.90
2019-04-30T11:26:00.067Z,99.90
2019-04-30T11:28:29.665Z,99.30
2019-04-30T11:31:24.300Z,99.90
2019-04-30T11:33:54.497Z,99.90
2019-04-30T11:36:23.258Z,99.90
2019-04-30T11:38:52.125Z,99.90
2019-04-30T11:41:30.236Z,99.50
2019-04-30T11:43:51.427Z,99.90
2019-04-30T11:46:49.979Z,99.90
2019-04-30T11:49:19.613Z,99.90
2019-04-30T11:51:48.504Z,99.90
2019-04-30T11:54:18.732Z,99.60
2019-04-30T11:56:50.259Z,99.50
2019-04-30T11:59:19.554Z,99.70
2019-04-30T12:01:51.263Z,99.60
2019-04-30T12:04:20.129Z,99.90
2019-04-30T12:06:49.129Z,99.10
2019-04-30T12:09:40.044Z,98.70
2019-04-30T12:12:09.148Z,98.90
2019-04-30T12:14:39.446Z,99.90
2019-04-30T12:17:08.555Z,99.40
2019-04-30T12:19:38.832Z,98.50
2019-04-30T12:22:07.569Z,98.60
2019-04-30T12:24:36.350Z,98.00
2019-04-30T12:27:05.036Z,98.00
2019-04-30T12:29:33.669Z,98.80
2019-04-30T12:32:02.532Z,97.50
2019-04-30T12:34:31.878Z,98.90
2019-04-30T12:37:00.753Z,98.30
2019-04-30T12:39:30.113Z,97.10
2019-04-30T12:42:01.926Z,96.80
2019-04-30T12:44:30.161Z,97.30
2019-04-30T12:46:58.847Z,97.40
2019-04-30T12:49:45.423Z,97.50
2019-04-30T12:52:29.680Z,97.30
2019-04-30T12:55:14.869Z,97.40
2019-04-30T12:57:40.771Z,97.30
2019-04-30T13:00:12.125Z,97.20
2019-04-30T13:02:40.869Z,96.80
2019-04-30T13:05:11.248Z,97.30
2019-04-30T13:07:40.667Z,96.80
2019-04-30T13:10:10.657Z,97.00
2019-04-30T13:12:40.489Z,96.90
2019-04-30T13:15:10.954Z,96.20
2019-04-30T13:17:39.674Z,96.30
2019-04-30T13:20:18.545Z,96.60
2019-04-30T13:22:39.500Z,96.10
2019-04-30T13:25:09.336Z,96.40
2019-04-30T13:27:42.789Z,96.80
2019-04-30T13:30:23.511Z,97.10
2019-04-30T13:33:03.305Z,96.30
2019-04-30T13:35:32.035Z,96.90
2019-04-30T13:38:07.595Z,96.30
2019-04-30T13:40:55.012Z,96.30
2019-04-30T13:43:43.076Z,96.70
2019-04-30T13:46:11.947Z,96.10
2019-04-30T13:48:40.556Z,96.00
2019-04-30T13:51:10.272Z,95.90
2019-04-30T13:53:39.490Z,96.30
2019-04-30T13:56:08.887Z,96.20
2019-04-30T13:58:37.698Z,96.60
2019-04-30T14:01:06.530Z,97.40
2019-04-30T14:03:41.102Z,96.70
2019-04-30T14:06:10.680Z,96.40
2019-04-30T14:08:43.708Z,96.40
2019-04-30T14:11:12.539Z,96.20
2019-04-30T14:13:41.155Z,96.20
2019-04-30T14:16:10.036Z,97.30
2019-04-30T14:18:39.013Z,97.10
2019-04-30T14:21:09.336Z,97.00
2019-04-30T14:23:39.595Z,96.40
2019-04-30T14:26:09.310Z,96.40
2019-04-30T14:28:39.105Z,96.10
2019-04-30T14:31:08.019Z,96.70
2019-04-30T14:33:36.844Z,95.40
2019-04-30T14:36:05.472Z,95.50
2019-04-30T14:38:34.141Z,96.00
2019-04-30T14:41:03.403Z,97.00
2019-04-30T14:43:42.785Z,98.10
2019-04-30T14:46:31.021Z,97.50
2019-04-30T14:49:16.560Z,97.50
2019-04-30T14:51:47.007Z,97.00
2019-04-30T14:54:21.520Z,97.00
2019-04-30T14:57:04.176Z,97.20
2019-04-30T14:59:52.166Z,97.40
2019-04-30T15:02:31.031Z,97.10
2019-04-30T15:04:59.753Z,97.50
2019-04-30T15:07:29.566Z,97.40
2019-04-30T15:09:58.512Z,97.20
2019-04-30T15:12:27.287Z,97.60
2019-04-30T15:14:56.229Z,96.90
2019-04-30T15:17:25.412Z,97.40
2019-04-30T15:19:54.575Z,96.60
2019-04-30T15:22:23.337Z,96.50
2019-04-30T15:24:52.931Z,97.10
2019-04-30T15:27:21.701Z,96.40
2019-04-30T15:29:57.012Z,95.90
2019-04-30T15:32:20.960Z,96.20
2019-04-30T15:34:49.620Z,96.30
2019-04-30T15:37:23.354Z,96.80
2019-04-30T15:39:49.095Z,97.30
2019-04-30T15:42:18.741Z,97.20
2019-04-30T15:44:49.488Z,97.40
2019-04-30T15:47:19.083Z,97.50
2019-04-30T15:49:47.851Z,97.10
2019-04-30T15:52:17.065Z,96.90
2019-04-30T15:54:48.967Z,98.10
2019-04-30T15:57:18.978Z,97.70
2019-04-30T15:59:47.969Z,97.50
2019-04-30T16:02:22.002Z,97.40
2019-04-30T16:05:08.583Z,97.40
2019-04-30T16:07:41.955Z,98.10
2019-04-30T16:10:45.205Z,97.40
2019-04-30T16:13:19.490Z,97.50
2019-04-30T16:15:49.301Z,97.40
2019-04-30T16:18:19.603Z,97.00
2019-04-30T16:20:49.865Z,97.10
2019-04-30T16:23:24.003Z,97.80
2019-04-30T16:25:53.144Z,97.40
2019-04-30T16:28:21.705Z,96.50
2019-04-30T16:30:50.292Z,97.00
2019-04-30T16:33:19.507Z,97.40
2019-04-30T16:35:51.036Z,97.00
2019-04-30T16:38:20.966Z,97.70
2019-04-30T16:40:50.002Z,97.00
2019-04-30T16:43:20.281Z,96.80
2019-04-30T16:45:50.351Z,96.50
2019-04-30T16:48:19.854Z,96.80
2019-04-30T16:50:51.105Z,96.30
2019-04-30T16:53:22.656Z,96.40
2019-04-30T16:55:51.361Z,96.60
2019-04-30T16:58:20.206Z,96.80
2019-04-30T17:00:49.321Z,97.00
2019-04-30T17:03:40.747Z,97.30
2019-04-30T17:06:14.913Z,97.60
2019-04-30T17:08:49.605Z,98.20
2019-04-30T17:11:38.558Z,98.50
2019-04-30T17:14:10.249Z,98.80
2019-04-30T17:16:39.171Z,99.50
2019-04-30T17:19:09.096Z,99.80
2019-04-30T17:21:37.872Z,99.90
2019-04-30T17:24:08.775Z,99.90
2019-04-30T17:26:39.232Z,99.90
2019-04-30T17:29:09.623Z,99.90
2019-04-30T17:31:38.392Z,99.90
2019-04-30T17:34:07.054Z,99.90
2019-04-30T17:36:35.931Z,99.90
2019-04-30T17:39:08.452Z,99.90
2019-04-30T17:41:37.974Z,99.90
2019-04-30T17:44:08.885Z,99.90
2019-04-30T17:46:38.561Z,99.90
2019-04-30T17:49:07.388Z,99.90
2019-04-30T17:51:35.928Z,99.90
2019-04-30T17:54:14.585Z,99.90
2019-04-30T17:56:44.415Z,99.90
2019-04-30T17:59:13.512Z,99.90
2019-04-30T18:01:45.777Z,99.90
2019-04-30T18:04:14.533Z,99.90
2019-04-30T18:06:43.197Z,99.90
2019-04-30T18:09:12.563Z,99.90
2019-04-30T18:11:41.000Z,99.90
2019-04-30T18:14:09.698Z,99.90
2019-04-30T18:16:38.796Z,99.90
2019-04-30T18:19:33.269Z,99.90
2019-04-30T18:22:09.690Z,99.90
2019-04-30T18:25:10.257Z,99.90
2019-04-30T18:27:46.314Z,99.90
2019-04-30T18:30:21.118Z,99.90
2019-04-30T18:32:50.041Z,99.90
2019-04-30T18:35:20.299Z,99.90
2019-04-30T18:37:49.249Z,99.90
2019-04-30T18:40:18.659Z,99.90
2019-04-30T18:42:49.466Z,99.90
2019-04-30T18:45:19.735Z,99.90
2019-04-30T18:47:48.593Z,99.90
2019-04-30T18:50:18.003Z,99.90
2019-04-30T18:52:50.355Z,99.90
2019-04-30T18:55:19.194Z,99.90
2019-04-30T18:57:56.384Z,99.90
2019-04-30T19:00:29.436Z,99.90
2019-04-30T19:02:58.700Z,99.90
2019-04-30T19:05:30.974Z,99.90
2019-04-30T19:08:06.314Z,99.90
2019-04-30T19:11:08.861Z,99.90
2019-04-30T19:13:55.264Z,99.90
2019-04-30T19:16:42.623Z,99.90
2019-04-30T19:19:19.732Z,99.90
2019-04-30T19:21:48.679Z,99.90
2019-04-30T19:24:19.591Z,99.90
2019-04-30T19:26:48.686Z,99.90
2019-04-30T19:29:17.659Z,99.90
2019-04-30T19:31:46.646Z,99.90
2019-04-30T19:34:15.351Z,99.90
2019-04-30T19:36:44.110Z,99.90
2019-04-30T19:39:12.996Z,99.90
2019-04-30T19:41:44.011Z,99.90
2019-04-30T19:44:12.669Z,99.90
2019-04-30T19:46:41.352Z,99.90
2019-04-30T19:49:10.197Z,99.90
2019-04-30T19:51:40.214Z,99.90
2019-04-30T19:54:11.359Z,99.90
2019-04-30T19:56:40.654Z,99.90
2019-04-30T19:59:09.381Z,99.90
2019-04-30T20:01:39.065Z,99.90
2019-04-30T20:04:09.847Z,99.90
2019-04-30T20:06:39.683Z,99.90
2019-04-30T20:09:09.062Z,99.90
2019-04-30T20:11:42.580Z,99.90
2019-04-30T20:14:10.559Z,99.90
2019-04-30T20:16:40.249Z,99.90
2019-04-30T20:19:09.288Z,99.90
2019-04-30T20:21:48.023Z,99.90
2019-04-30T20:24:08.588Z,99.90
2019-04-30T20:26:37.419Z,99.90
2019-04-30T20:29:06.043Z,99.90
2019-04-30T20:31:34.761Z,99.90
2019-04-30T20:34:03.582Z,99.90
2019-04-30T20:36:32.415Z,99.90
2019-04-30T20:39:26.349Z,99.90
2019-04-30T20:41:55.462Z,99.90
2019-04-30T20:44:24.153Z,99.90
2019-04-30T20:46:53.021Z,99.90
2019-04-30T20:49:21.761Z,99.90
2019-04-30T20:51:55.191Z,99.90
2019-04-30T20:54:21.117Z,99.90
2019-04-30T20:56:51.166Z,99.90
2019-04-30T20:59:19.883Z,99.90
2019-04-30T21:01:49.090Z,99.90
2019-04-30T21:04:20.582Z,99.90
2019-04-30T21:06:49.620Z,99.90
2019-04-30T21:09:18.464Z,99.90
2019-04-30T21:11:48.885Z,99.90
2019-04-30T21:14:19.263Z,99.90
2019-04-30T21:16:48.327Z,99.90
2019-04-30T21:19:17.176Z,99.90
2019-04-30T21:21:45.877Z,99.90
2019-04-30T21:24:14.496Z,99.90
2019-04-30T21:26:43.285Z,99.90
2019-04-30T21:29:15.687Z,99.90
2019-04-30T21:32:00.382Z,99.90
2019-04-30T21:34:54.466Z,99.90
2019-04-30T21:37:23.359Z,99.90
2019-04-30T21:39:52.018Z,99.90
2019-04-30T21:42:21.742Z,99.90
2019-04-30T21:44:50.465Z,99.90
2019-04-30T21:47:19.083Z,99.90
2019-04-30T21:49:47.723Z,99.90
2019-04-30T21:52:16.384Z,99.90
2019-04-30T21:54:45.156Z,99.90
2019-04-30T21:57:14.847Z,99.90
2019-04-30T21:59:43.718Z,99.90
2019-04-30T22:02:12.525Z,99.90
2019-04-30T22:04:41.575Z,99.90
2019-04-30T22:07:10.249Z,99.90
2019-04-30T22:09:38.915Z,99.90
2019-04-30T22:12:09.221Z,99.90
2019-04-30T22:14:37.886Z,99.90
2019-04-30T22:17:06.740Z,99.90
2019-04-30T22:19:35.337Z,99.90
2019-04-30T22:22:04.143Z,99.90
2019-04-30T22:24:32.861Z,99.90
2019-04-30T22:27:01.603Z,99.90
2019-04-30T22:29:39.120Z,99.90
2019-04-30T22:32:00.655Z,99.90
2019-04-30T22:34:29.394Z,99.90
2019-04-30T22:36:58.672Z,99.90
2019-04-30T22:39:39.539Z,99.90
2019-04-30T22:42:34.975Z,99.90
2019-04-30T22:45:07.549Z,99.90
2019-04-30T22:47:36.088Z,99.90
2019-04-30T22:50:06.239Z,99.90
2019-04-30T22:52:35.033Z,99.90
2019-04-30T22:55:04.236Z,99.90
2019-04-30T22:57:33.977Z,99.90
2019-04-30T23:00:03.140Z,99.90
2019-04-30T23:02:56.321Z,99.90
2019-04-30T23:05:25.031Z,99.90
2019-04-30T23:07:53.967Z,99.90
2019-04-30T23:10:27.513Z,99.90
2019-04-30T23:12:56.773Z,99.90
2019-04-30T23:15:28.128Z,99.90
2019-04-30T23:17:58.103Z,99.90
2019-04-30T23:20:26.913Z,99.90
2019-04-30T23:22:55.687Z,99.90
2019-04-30T23:25:24.308Z,99.90
2019-04-30T23:27:53.002Z,99.90
2019-04-30T23:30:21.766Z,99.90
2019-04-30T23:32:50.620Z,99.90
2019-04-30T23:35:19.450Z,99.90
2019-04-30T23:37:48.091Z,99.90
2019-04-30T23:40:47.127Z,99.90
2019-04-30T23:43:15.851Z,99.90
2019-04-30T23:45:44.535Z,99.90
2019-04-30T23:48:13.274Z,99.90
2019-04-30T23:50:42.093Z,99.90
2019-04-30T23:53:10.736Z,99.90
2019-04-30T23:55:39.657Z,99.90
2019-04-30T23:58:09.404Z,99.90
